Time;durP1;ratioP1;P1;durP2;ratioP2;P2;SDS_P1;SDS_P2;PMS_P1;PMS_P2;Temp;Humidity;BMP_temperature;BMP_pressure;BME280_temperature;BME280_humidity;BME280_pressure;Samples;Min_cycle;Max_cycle;Signal;HPM_P1;HPM_P2
2022/05/12 00:00:17;;;;;;;2.03;0.70;;;21.00;99.90;;;;;;5131039;27;20455;-54
2022/05/12 00:02:44;;;;;;;0.90;0.50;;;21.10;99.90;;;;;;5134749;27;20945;-52
2022/05/12 00:05:12;;;;;;;0.70;0.50;;;21.10;99.90;;;;;;5136463;27;20504;-53
2022/05/12 00:07:39;;;;;;;0.70;0.50;;;21.10;99.90;;;;;;5135958;28;20451;-55
2022/05/12 00:10:08;;;;;;;1.47;0.60;;;21.10;99.90;;;;;;5129163;28;20767;-49
2022/05/12 00:12:37;;;;;;;1.00;0.70;;;21.10;99.90;;;;;;5133485;28;20475;-51
2022/05/12 00:15:06;;;;;;;0.90;0.60;;;21.10;99.90;;;;;;5135608;28;20466;-54
2022/05/12 00:17:33;;;;;;;1.27;0.60;;;21.10;99.90;;;;;;5135578;28;20474;-54
2022/05/12 00:20:01;;;;;;;2.63;0.67;;;21.10;99.90;;;;;;5128593;28;20578;-54
2022/05/12 00:22:28;;;;;;;0.97;0.60;;;21.10;99.90;;;;;;5129860;28;20494;-55
2022/05/12 00:24:55;;;;;;;1.20;0.63;;;21.10;99.90;;;;;;5132319;28;20475;-53
2022/05/12 00:27:21;;;;;;;0.80;0.63;;;21.10;99.90;;;;;;5131878;28;20492;-54
2022/05/12 00:29:50;;;;;;;1.20;0.50;;;21.00;99.90;;;;;;5134647;27;20447;-55
2022/05/12 00:32:17;;;;;;;0.80;0.60;;;21.00;99.90;;;;;;5138383;27;20483;-55
2022/05/12 00:34:43;;;;;;;1.40;0.60;;;21.00;99.90;;;;;;5138040;27;20551;-52
2022/05/12 00:37:10;;;;;;;2.77;0.50;;;21.00;99.90;;;;;;5132248;27;20466;-51
2022/05/12 00:39:37;;;;;;;0.80;0.60;;;21.00;99.90;;;;;;5138393;27;20547;-54
2022/05/12 00:42:05;;;;;;;1.03;0.63;;;20.90;99.90;;;;;;5139846;27;20945;-54
2022/05/12 00:44:31;;;;;;;0.87;0.70;;;20.90;99.90;;;;;;5137426;27;20513;-55
2022/05/12 00:47:00;;;;;;;1.00;0.67;;;20.80;99.90;;;;;;5135640;27;20567;-52
2022/05/12 00:49:30;;;;;;;1.07;0.70;;;20.80;99.90;;;;;;5135046;27;20460;-52
2022/05/12 00:52:06;;;;;;;0.90;0.60;;;20.80;99.90;;;;;;5139406;27;20886;-55
2022/05/12 00:54:39;;;;;;;0.87;0.50;;;20.70;99.90;;;;;;5135962;27;20462;-52
2022/05/12 00:57:09;;;;;;;1.83;0.60;;;20.70;99.90;;;;;;5136649;27;20554;-54
2022/05/12 00:59:37;;;;;;;0.70;0.60;;;20.70;99.90;;;;;;5137231;27;20529;-54
2022/05/12 01:02:11;;;;;;;0.80;0.60;;;20.70;99.90;;;;;;5137934;27;20547;-53
2022/05/12 01:04:39;;;;;;;0.73;0.57;;;20.70;99.90;;;;;;5136153;27;20925;-52
2022/05/12 01:07:06;;;;;;;1.00;0.70;;;20.70;99.90;;;;;;5135875;27;20459;-55
2022/05/12 01:09:33;;;;;;;1.83;0.60;;;20.60;99.90;;;;;;5138825;27;20914;-54
2022/05/12 01:12:00;;;;;;;1.00;0.60;;;20.60;99.90;;;;;;5138271;27;20764;-54
2022/05/12 01:14:27;;;;;;;0.90;0.67;;;20.70;99.90;;;;;;5130897;27;20638;-55
2022/05/12 01:16:55;;;;;;;0.70;0.60;;;20.60;99.90;;;;;;5136934;27;20563;-53
2022/05/12 01:19:26;;;;;;;1.07;0.60;;;20.70;99.90;;;;;;5135287;27;20541;-54
2022/05/12 01:21:54;;;;;;;0.70;0.50;;;20.60;99.90;;;;;;5122798;27;20575;-55
2022/05/12 01:24:25;;;;;;;1.63;0.53;;;20.60;99.90;;;;;;5123856;27;20898;-54
2022/05/12 01:26:52;;;;;;;0.83;0.53;;;20.70;99.90;;;;;;5130338;27;20534;-54
2022/05/12 01:29:19;;;;;;;0.90;0.60;;;20.70;99.90;;;;;;5130065;27;20869;-54
2022/05/12 01:31:46;;;;;;;0.90;0.60;;;20.70;99.90;;;;;;5126176;27;20491;-55
2022/05/12 01:34:14;;;;;;;0.80;0.67;;;20.80;99.90;;;;;;5125284;27;20494;-55
2022/05/12 01:36:41;;;;;;;0.87;0.70;;;20.80;99.90;;;;;;5125853;27;20547;-54
2022/05/12 01:39:10;;;;;;;1.00;0.60;;;20.80;99.90;;;;;;5122849;27;20454;-54
2022/05/12 01:41:38;;;;;;;1.00;0.50;;;20.80;99.90;;;;;;5119378;27;20539;-56
2022/05/12 01:44:05;;;;;;;1.70;0.50;;;20.80;99.90;;;;;;5117721;27;20457;-56
2022/05/12 01:46:32;;;;;;;1.40;0.63;;;20.80;99.90;;;;;;5125597;27;20506;-56
2022/05/12 01:48:59;;;;;;;1.10;0.77;;;20.80;99.90;;;;;;5119648;27;20551;-51
2022/05/12 01:51:28;;;;;;;0.83;0.70;;;20.80;99.90;;;;;;5125441;27;20456;-55
2022/05/12 01:53:55;;;;;;;0.80;0.53;;;20.80;99.90;;;;;;5126606;27;20473;-53
2022/05/12 01:56:22;;;;;;;0.80;0.60;;;20.70;99.90;;;;;;5119133;27;20492;-56
2022/05/12 01:58:50;;;;;;;0.90;0.60;;;20.70;99.90;;;;;;5123487;27;20543;-56
2022/05/12 02:01:17;;;;;;;0.80;0.60;;;20.70;99.90;;;;;;5125755;27;20503;-55
2022/05/12 02:03:43;;;;;;;1.47;0.70;;;20.70;99.90;;;;;;5120519;27;20451;-55
2022/05/12 02:06:10;;;;;;;0.97;0.60;;;20.70;99.90;;;;;;5117839;27;20496;-56
2022/05/12 02:08:37;;;;;;;0.73;0.60;;;20.60;99.90;;;;;;5138776;27;20459;-56
2022/05/12 02:11:04;;;;;;;1.03;0.70;;;20.60;99.90;;;;;;5130882;27;20824;-54
2022/05/12 02:13:31;;;;;;;0.90;0.67;;;20.50;99.90;;;;;;5129566;27;20481;-56
2022/05/12 02:16:00;;;;;;;1.33;0.70;;;20.50;99.90;;;;;;5117481;27;20551;-56
2022/05/12 02:18:28;;;;;;;1.27;0.60;;;20.50;99.90;;;;;;5117405;27;20547;-55
2022/05/12 02:20:56;;;;;;;0.90;0.63;;;20.50;99.90;;;;;;5135723;27;20499;-52
2022/05/12 02:23:23;;;;;;;1.80;0.90;;;20.50;99.90;;;;;;5118237;27;20548;-52
2022/05/12 02:25:50;;;;;;;2.23;0.70;;;20.40;99.90;;;;;;5133257;27;20456;-55
2022/05/12 02:28:17;;;;;;;0.80;0.60;;;20.30;99.90;;;;;;5123542;27;20460;-50
2022/05/12 02:30:45;;;;;;;0.87;0.60;;;20.20;99.90;;;;;;5124078;27;20535;-52
2022/05/12 02:33:13;;;;;;;1.47;0.73;;;20.10;99.90;;;;;;5117389;27;20595;-53
2022/05/12 02:35:41;;;;;;;0.90;0.60;;;20.10;99.90;;;;;;5135880;27;20535;-57
2022/05/12 02:38:09;;;;;;;1.07;0.60;;;20.00;99.90;;;;;;5116216;27;20562;-56
2022/05/12 02:40:36;;;;;;;0.87;0.70;;;19.90;99.90;;;;;;5126037;27;20539;-56
2022/05/12 02:43:22;;;;;;;0.87;0.70;;;19.80;1.00;;;;;;5126561;27;21030;-56
2022/05/12 02:45:50;;;;;;;0.80;0.70;;;19.80;1.00;;;;;;5123707;27;20769;-55
2022/05/12 02:48:18;;;;;;;1.03;0.70;;;19.70;1.00;;;;;;5136569;27;20815;-54
2022/05/12 02:50:45;;;;;;;1.57;0.60;;;19.70;1.00;;;;;;5123469;27;20460;-56
2022/05/12 02:53:12;;;;;;;1.30;0.60;;;19.80;1.00;;;;;;5127714;27;20997;-55
2022/05/12 02:55:39;;;;;;;1.00;0.70;;;19.80;1.00;;;;;;5133087;27;20546;-56
2022/05/12 02:58:06;;;;;;;0.80;0.70;;;19.80;1.00;;;;;;5130626;27;20937;-56
2022/05/12 03:00:33;;;;;;;1.57;0.60;;;19.80;1.00;;;;;;5130059;27;20461;-52
2022/05/12 03:03:01;;;;;;;0.90;0.70;;;19.80;1.00;;;;;;5135069;27;20456;-56
2022/05/12 03:05:29;;;;;;;0.73;0.60;;;19.80;1.00;;;;;;5118050;27;20543;-50
2022/05/12 03:07:56;;;;;;;1.40;0.70;;;19.80;1.00;;;;;;5120503;27;20491;-52
2022/05/12 03:10:23;;;;;;;1.00;0.70;;;19.80;1.00;;;;;;5117129;27;20468;-51
2022/05/12 03:12:50;;;;;;;3.73;0.73;;;19.90;1.00;;;;;;5116066;27;20480;-50
2022/05/12 03:15:17;;;;;;;2.30;0.70;;;19.90;1.00;;;;;;5128938;27;20524;-53
2022/05/12 03:17:44;;;;;;;1.30;0.70;;;19.90;1.00;;;;;;5124696;27;20952;-56
2022/05/12 03:20:14;;;;;;;0.70;0.60;;;19.90;1.00;;;;;;5127198;27;20475;-57
2022/05/12 03:22:42;;;;;;;0.80;0.60;;;19.90;1.00;;;;;;5134682;27;20563;-56
2022/05/12 03:25:12;;;;;;;0.97;0.70;;;19.80;1.00;;;;;;5134219;27;20500;-52
2022/05/12 03:27:40;;;;;;;1.27;0.60;;;19.90;1.00;;;;;;5129136;27;20491;-54
2022/05/12 03:30:11;;;;;;;1.00;0.60;;;19.90;1.00;;;;;;5134870;27;20485;-56
2022/05/12 03:32:38;;;;;;;1.50;0.70;;;19.80;1.00;;;;;;5133717;27;20494;-55
2022/05/12 03:35:06;;;;;;;1.57;0.60;;;19.80;1.00;;;;;;5133688;27;20986;-53
2022/05/12 03:37:33;;;;;;;0.83;0.60;;;19.70;1.00;;;;;;5135249;27;20495;-55
2022/05/12 03:40:02;;;;;;;0.73;0.50;;;19.60;1.00;;;;;;5136019;27;20460;-54
2022/05/12 03:42:29;;;;;;;0.70;0.40;;;19.60;1.00;;;;;;5135874;27;20513;-55
2022/05/12 03:44:59;;;;;;;0.87;0.50;;;19.70;1.00;;;;;;5131649;27;20538;-56
2022/05/12 03:47:29;;;;;;;1.37;0.40;;;19.70;1.00;;;;;;5135263;27;20481;-56
2022/05/12 03:49:59;;;;;;;0.60;0.50;;;19.70;1.00;;;;;;5134374;27;20488;-56
2022/05/12 03:52:26;;;;;;;1.70;0.50;;;19.70;1.00;;;;;;5131894;27;20556;-53
2022/05/12 03:54:53;;;;;;;1.40;0.50;;;19.70;1.00;;;;;;5133580;27;20962;-50
2022/05/12 03:57:23;;;;;;;0.70;0.50;;;19.80;1.00;;;;;;5135109;27;20961;-54
2022/05/12 03:59:50;;;;;;;0.60;0.40;;;19.70;1.00;;;;;;5135522;27;20786;-51
2022/05/12 04:02:18;;;;;;;0.57;0.40;;;19.70;1.00;;;;;;5133338;27;20464;-56
2022/05/12 04:04:46;;;;;;;0.70;0.50;;;19.70;1.00;;;;;;5133169;27;20459;-55
2022/05/12 04:07:15;;;;;;;0.70;0.50;;;19.70;1.00;;;;;;5134077;28;20470;-50
2022/05/12 04:09:43;;;;;;;0.80;0.50;;;19.70;1.00;;;;;;5133699;28;21231;-55
2022/05/12 04:12:11;;;;;;;0.70;0.40;;;19.60;1.00;;;;;;5129915;28;20495;-53
2022/05/12 04:14:40;;;;;;;0.70;0.70;;;19.60;1.00;;;;;;5135801;28;20547;-54
2022/05/12 04:17:08;;;;;;;0.90;0.43;;;19.60;1.00;;;;;;5134183;28;20555;-55
2022/05/12 04:19:35;;;;;;;0.50;0.30;;;19.70;1.00;;;;;;5134297;28;20590;-56
2022/05/12 04:22:03;;;;;;;1.00;0.30;;;19.70;1.00;;;;;;5128799;28;20946;-55
2022/05/12 04:24:30;;;;;;;0.53;0.37;;;19.60;1.00;;;;;;5134830;28;20610;-56
2022/05/12 04:26:57;;;;;;;0.73;0.50;;;19.60;1.00;;;;;;5135157;28;20471;-53
2022/05/12 04:29:25;;;;;;;0.80;0.40;;;19.60;1.00;;;;;;5133205;28;20460;-55
2022/05/12 04:31:53;;;;;;;0.90;0.40;;;19.60;1.00;;;;;;5135311;28;20534;-54
2022/05/12 04:37:05;;;;;;;0.60;0.43;;;19.60;1.00;;;;;;5132839;28;20455;-56
2022/05/12 04:39:32;;;;;;;0.77;0.50;;;19.60;1.00;;;;;;5131323;28;20462;-56
2022/05/12 04:41:59;;;;;;;0.87;0.50;;;19.60;1.00;;;;;;5134742;28;20451;-56
2022/05/12 04:44:27;;;;;;;1.20;0.40;;;19.60;1.00;;;;;;5134311;28;20538;-57
2022/05/12 04:46:55;;;;;;;1.60;0.40;;;19.70;1.00;;;;;;5130670;28;20440;-56
2022/05/12 04:49:23;;;;;;;0.70;0.50;;;19.60;1.00;;;;;;5130621;28;20539;-55
2022/05/12 04:51:50;;;;;;;0.70;0.40;;;19.60;1.00;;;;;;5136110;28;20451;-55
2022/05/12 04:54:17;;;;;;;0.60;0.30;;;19.60;1.00;;;;;;5132832;28;20569;-53
2022/05/12 04:56:44;;;;;;;0.90;0.40;;;19.60;1.00;;;;;;5133073;28;20487;-56
2022/05/12 04:59:11;;;;;;;1.17;0.40;;;19.60;1.00;;;;;;5132658;28;20815;-53
2022/05/12 05:01:38;;;;;;;0.70;0.40;;;19.60;1.00;;;;;;5135090;28;20551;-55
2022/05/12 05:04:07;;;;;;;0.70;0.50;;;19.70;1.00;;;;;;5133024;28;20952;-55
2022/05/12 05:06:34;;;;;;;0.87;0.40;;;19.70;1.00;;;;;;5130366;28;20449;-56
2022/05/12 05:09:01;;;;;;;0.70;0.40;;;19.70;1.00;;;;;;5135274;28;20550;-54
2022/05/12 05:11:28;;;;;;;0.77;0.57;;;19.80;1.00;;;;;;5133059;28;20463;-56
2022/05/12 05:13:55;;;;;;;1.07;0.40;;;19.80;1.00;;;;;;5132581;28;20875;-56
2022/05/12 05:16:22;;;;;;;0.60;0.40;;;19.80;1.00;;;;;;5131040;27;20463;-54
2022/05/12 05:18:49;;;;;;;0.57;0.40;;;19.90;1.00;;;;;;5135800;27;20475;-54
2022/05/12 05:21:18;;;;;;;0.70;0.40;;;19.90;1.00;;;;;;5128715;27;20555;-55
2022/05/12 05:23:44;;;;;;;0.60;0.47;;;20.00;1.00;;;;;;5118200;27;20495;-54
2022/05/12 05:26:11;;;;;;;0.60;0.40;;;20.20;1.00;;;;;;5131230;27;20550;-56
2022/05/12 05:28:39;;;;;;;0.60;0.40;;;20.20;1.00;;;;;;5136943;27;20551;-54
2022/05/12 05:31:06;;;;;;;1.20;0.40;;;20.30;1.00;;;;;;5118612;27;20521;-54
2022/05/12 05:33:33;;;;;;;0.60;0.50;;;20.40;1.00;;;;;;5124787;27;20479;-53
2022/05/12 05:36:00;;;;;;;0.70;0.40;;;20.40;1.00;;;;;;5127249;27;20466;-53
2022/05/12 05:38:28;;;;;;;2.10;0.50;;;20.40;1.00;;;;;;5125232;27;20465;-55
2022/05/12 05:40:55;;;;;;;0.67;0.50;;;20.30;1.00;;;;;;5116299;27;20457;-56
2022/05/12 05:43:23;;;;;;;0.67;0.50;;;20.40;1.00;;;;;;5121281;27;20462;-54
2022/05/12 05:45:50;;;;;;;1.40;0.40;;;20.40;1.00;;;;;;5127739;27;20514;-56
2022/05/12 05:48:17;;;;;;;1.57;0.50;;;20.50;1.00;;;;;;5120659;27;20560;-55
2022/05/12 05:53:35;;;;;;;0.73;0.40;;;20.50;1.00;;;;;;5130969;27;20478;-56
2022/05/12 05:56:05;;;;;;;1.23;0.50;;;20.50;1.00;;;;;;5126035;27;20460;-55
2022/05/12 05:58:32;;;;;;;1.83;0.40;;;20.40;1.00;;;;;;5120455;27;21066;-55
2022/05/12 06:01:00;;;;;;;1.10;0.50;;;20.50;1.00;;;;;;5125411;27;20451;-53
2022/05/12 06:03:27;;;;;;;0.63;0.40;;;20.60;1.00;;;;;;5121430;27;20480;-57
2022/05/12 06:05:55;;;;;;;1.20;0.40;;;20.60;1.00;;;;;;5119299;27;20563;-56
2022/05/12 06:08:23;;;;;;;0.53;0.40;;;20.40;1.00;;;;;;5115861;27;20452;-56
2022/05/12 06:10:51;;;;;;;0.60;0.43;;;20.40;1.00;;;;;;5116620;27;20488;-57
2022/05/12 06:13:18;;;;;;;0.77;0.50;;;20.30;1.00;;;;;;5119607;27;20805;-55
2022/05/12 06:15:45;;;;;;;0.53;0.47;;;20.40;1.00;;;;;;5127233;27;20538;-57
2022/05/12 06:18:15;;;;;;;3.53;0.50;;;20.40;1.00;;;;;;5123660;27;20923;-56
2022/05/12 06:20:43;;;;;;;1.00;0.40;;;20.40;1.00;;;;;;5121605;27;20518;-55
2022/05/12 06:23:10;;;;;;;0.93;0.40;;;20.50;1.00;;;;;;5122326;27;20522;-56
2022/05/12 06:25:38;;;;;;;0.50;0.30;;;20.50;1.00;;;;;;5126266;27;21093;-55
2022/05/12 06:28:07;;;;;;;0.70;0.50;;;20.60;1.00;;;;;;5114146;27;20495;-56
2022/05/12 06:30:35;;;;;;;0.70;0.50;;;20.70;1.00;;;;;;5121690;27;21035;-52
2022/05/12 06:33:02;;;;;;;0.73;0.50;;;20.90;1.00;;;;;;5124401;27;20553;-56
2022/05/12 06:35:29;;;;;;;0.60;0.40;;;21.00;1.00;;;;;;5129035;27;20460;-53
2022/05/12 06:37:56;;;;;;;0.70;0.40;;;21.10;1.00;;;;;;5117066;27;20570;-55
2022/05/12 06:40:23;;;;;;;0.83;0.43;;;21.20;1.00;;;;;;5114597;28;20468;-53
2022/05/12 06:42:51;;;;;;;0.70;0.40;;;21.30;1.00;;;;;;5114667;27;20488;-55
2022/05/12 06:45:21;;;;;;;0.70;0.50;;;21.40;1.00;;;;;;5114757;27;20559;-54
2022/05/12 06:47:50;;;;;;;0.73;0.50;;;21.40;1.00;;;;;;5115280;27;20555;-55
2022/05/12 06:50:19;;;;;;;0.70;0.50;;;21.60;1.00;;;;;;5115132;27;20484;-55
2022/05/12 06:52:47;;;;;;;0.70;0.50;;;21.50;1.00;;;;;;5112950;27;21281;-51
2022/05/12 06:55:14;;;;;;;1.57;0.40;;;21.20;1.00;;;;;;5113657;27;20472;-53
2022/05/12 06:57:42;;;;;;;1.30;0.43;;;21.20;1.00;;;;;;5115151;27;20571;-54
2022/05/12 07:00:13;;;;;;;1.27;0.50;;;21.20;1.00;;;;;;5119565;27;20496;-54
2022/05/12 07:02:42;;;;;;;11.13;7.90;;;21.30;1.00;;;;;;5116088;27;20198;-55
2022/05/12 07:05:11;;;;;;;3.23;1.27;;;21.30;1.00;;;;;;5116662;27;20452;-54
2022/05/12 07:07:38;;;;;;;1.37;0.50;;;21.40;1.00;;;;;;5114853;27;20453;-53
2022/05/12 07:10:05;;;;;;;2.30;0.50;;;21.30;1.00;;;;;;5120710;27;20539;-51
2022/05/12 07:12:33;;;;;;;0.53;0.37;;;21.30;1.00;;;;;;5124396;27;20982;-56
2022/05/12 07:15:11;;;;;;;;;;;;;;;;;;;;;
2022/05/12 07:17:39;;;;;;;0.70;0.40;;;21.10;1.00;;;;;;5112959;27;20452;-59
2022/05/12 07:28:22;;;;;;;0.87;0.43;;;20.90;1.00;;;;;;5120224;27;20482;-59
2022/05/12 07:31:05;;;;;;;0.63;0.50;;;21.00;1.00;;;;;;5121353;27;20459;-58
2022/05/12 07:33:34;;;;;;;3.30;0.50;;;21.20;1.00;;;;;;5125558;27;20490;-57
2022/05/12 07:36:04;;;;;;;0.60;0.40;;;21.40;1.00;;;;;;5115213;27;20460;-58
2022/05/12 07:38:32;;;;;;;0.50;0.30;;;21.50;1.00;;;;;;5113465;27;20537;-58
2022/05/12 07:40:59;;;;;;;1.17;0.50;;;21.60;1.00;;;;;;5119521;27;20469;-58
2022/05/12 07:43:27;;;;;;;0.77;0.50;;;21.50;1.00;;;;;;5116654;27;20521;-56
2022/05/12 07:45:54;;;;;;;0.57;0.40;;;21.20;1.00;;;;;;5122439;27;20826;-57
2022/05/12 07:48:21;;;;;;;0.87;0.50;;;21.00;1.00;;;;;;5119921;27;20778;-57
2022/05/12 07:50:48;;;;;;;1.77;0.40;;;21.10;1.00;;;;;;5114242;27;20554;-58
2022/05/12 07:53:16;;;;;;;0.87;0.50;;;21.20;1.00;;;;;;5118432;27;20551;-53
2022/05/12 07:55:43;;;;;;;0.70;0.40;;;21.40;1.00;;;;;;5120352;27;20488;-55
2022/05/12 08:01:12;;;;;;;0.60;0.40;;;21.40;1.00;;;;;;5101284;27;20887;-53
2022/05/12 08:03:40;;;;;;;1.20;0.53;;;21.70;1.00;;;;;;5123375;27;20494;-57
2022/05/12 08:06:08;;;;;;;0.70;0.50;;;21.90;1.00;;;;;;5122620;27;20488;-57
2022/05/12 08:08:36;;;;;;;0.80;0.50;;;22.00;1.00;;;;;;5116752;28;20458;-57
2022/05/12 08:11:05;;;;;;;0.80;0.40;;;22.00;1.00;;;;;;5123123;28;20462;-57
2022/05/12 08:13:33;;;;;;;2.50;0.60;;;22.20;1.00;;;;;;5115631;28;20559;-55
2022/05/12 08:16:01;;;;;;;0.60;0.40;;;22.30;1.00;;;;;;5122501;28;20809;-53
2022/05/12 08:18:29;;;;;;;0.60;0.40;;;22.40;1.00;;;;;;5113169;27;20459;-57
2022/05/12 08:20:56;;;;;;;0.70;0.50;;;22.30;1.00;;;;;;5120461;28;21005;-56
2022/05/12 08:23:23;;;;;;;0.60;0.50;;;22.30;1.00;;;;;;5131456;28;20555;-56
2022/05/12 08:25:52;;;;;;;1.13;0.43;;;22.10;1.00;;;;;;5123106;28;20452;-57
2022/05/12 08:28:22;;;;;;;0.70;0.50;;;22.40;1.00;;;;;;5127464;28;20566;-57
2022/05/12 08:30:50;;;;;;;0.67;0.40;;;22.30;1.00;;;;;;5134068;28;20452;-56
2022/05/12 08:33:18;;;;;;;0.60;0.40;;;22.20;1.00;;;;;;5121617;28;20551;-57
2022/05/12 08:35:45;;;;;;;0.60;0.40;;;22.10;1.00;;;;;;5116533;28;20525;-56
2022/05/12 08:38:14;;;;;;;0.67;0.40;;;22.20;1.00;;;;;;5128297;28;20794;-54
2022/05/12 08:40:49;;;;;;;1.13;0.40;;;22.30;1.00;;;;;;5129548;28;20449;-57
2022/05/12 08:43:20;;;;;;;0.70;0.40;;;22.10;1.00;;;;;;5131504;28;20450;-57
2022/05/12 08:45:48;;;;;;;0.80;0.50;;;22.10;1.00;;;;;;5112223;28;20532;-56
2022/05/12 08:48:16;;;;;;;0.60;0.40;;;22.30;1.00;;;;;;5123925;28;20452;-53
2022/05/12 08:50:44;;;;;;;0.60;0.40;;;22.30;1.00;;;;;;5122868;27;20440;-57
2022/05/12 08:53:14;;;;;;;0.67;0.50;;;22.30;1.00;;;;;;5137283;27;20452;-56
2022/05/12 08:55:47;;;;;;;0.70;0.53;;;22.40;1.00;;;;;;5124841;27;20583;-56
2022/05/12 08:58:21;;;;;;;0.80;0.50;;;22.50;1.00;;;;;;5132810;27;20451;-54
2022/05/12 09:00:57;;;;;;;1.17;0.43;;;22.50;1.00;;;;;;5134165;27;20469;-56
2022/05/12 09:03:32;;;;;;;0.70;0.50;;;22.40;1.00;;;;;;5132205;27;20458;-56
2022/05/12 09:06:02;;;;;;;0.90;0.70;;;22.60;1.00;;;;;;5118057;27;20451;-56
2022/05/12 09:08:36;;;;;;;0.60;0.40;;;22.70;1.00;;;;;;5123799;27;20466;-55
2022/05/12 09:11:07;;;;;;;0.63;0.50;;;22.70;1.00;;;;;;5126593;27;20451;-56
2022/05/12 09:13:41;;;;;;;0.90;0.60;;;22.70;1.00;;;;;;5128622;27;21057;-56
2022/05/12 09:16:14;;;;;;;1.10;0.60;;;22.60;1.00;;;;;;5122447;27;20895;-57
2022/05/12 09:18:42;;;;;;;5.73;1.67;;;22.70;1.00;;;;;;5119458;27;20471;-54
2022/05/12 09:21:13;;;;;;;2.17;0.77;;;22.90;1.00;;;;;;5130578;27;20454;-54
2022/05/12 09:23:42;;;;;;;5.37;0.70;;;23.00;1.00;;;;;;5128491;27;20441;-54
2022/05/12 09:26:32;;;;;;;2.00;0.70;;;23.10;1.00;;;;;;5125989;27;20739;-56
2022/05/12 09:29:18;;;;;;;1.53;0.90;;;23.20;1.00;;;;;;5125480;27;20482;-57
2022/05/12 09:31:48;;;;;;;1.60;0.80;;;23.30;1.00;;;;;;5127961;27;20915;-60
2022/05/12 09:34:24;;;;;;;1.50;0.60;;;23.40;1.00;;;;;;5126928;27;20623;-59
2022/05/12 09:36:51;;;;;;;0.90;0.60;;;23.50;1.00;;;;;;5125858;27;20986;-59
2022/05/12 09:39:36;;;;;;;0.90;0.70;;;23.60;1.00;;;;;;5133335;27;20451;-59
2022/05/12 09:42:04;;;;;;;1.30;0.67;;;23.40;1.00;;;;;;5121569;27;20468;-59
2022/05/12 09:44:34;;;;;;;1.33;0.73;;;23.40;1.00;;;;;;5129946;27;20451;-57
2022/05/12 09:47:07;;;;;;;1.30;0.80;;;23.50;1.00;;;;;;5123743;27;20468;-58
2022/05/12 09:49:38;;;;;;;1.47;0.87;;;23.90;1.00;;;;;;5127910;27;20456;-58
2022/05/12 09:52:31;;;;;;;1.10;0.70;;;24.10;1.00;;;;;;5121849;27;20452;-58
2022/05/12 09:55:13;;;;;;;2.27;1.90;;;24.20;1.00;;;;;;5117923;27;20570;-58
2022/05/12 09:57:47;;;;;;;0.90;0.80;;;24.30;1.00;;;;;;5126958;27;20462;-58
2022/05/12 10:00:32;;;;;;;2.83;0.67;;;24.30;1.00;;;;;;5119894;27;21265;-58
2022/05/12 10:08:43;;;;;;;0.90;0.67;;;24.50;1.00;;;;;;5130829;27;20453;-58
2022/05/12 10:11:14;;;;;;;1.33;0.70;;;24.40;1.00;;;;;;5126081;27;20441;-58
2022/05/12 10:13:50;;;;;;;0.90;0.60;;;24.40;1.00;;;;;;5113093;28;20451;-58
2022/05/12 10:16:23;;;;;;;0.70;0.60;;;24.20;1.00;;;;;;5114197;27;20571;-58
2022/05/12 10:18:53;;;;;;;3.10;0.60;;;24.30;1.00;;;;;;5114632;27;20997;-58
2022/05/12 10:21:23;;;;;;;1.20;0.70;;;24.40;1.00;;;;;;5134513;27;20479;-58
2022/05/12 10:24:00;;;;;;;0.93;0.60;;;24.40;1.00;;;;;;5133820;27;20539;-58
2022/05/12 10:26:38;;;;;;;1.50;0.73;;;24.20;1.00;;;;;;5130516;27;20882;-59
2022/05/12 10:29:11;;;;;;;0.80;0.60;;;24.20;1.00;;;;;;5127716;27;20488;-59
2022/05/12 10:31:48;;;;;;;1.13;0.63;;;24.50;1.00;;;;;;5131959;27;20444;-58
2022/05/12 10:34:30;;;;;;;0.70;0.53;;;25.10;1.00;;;;;;5133162;27;20446;-58
2022/05/12 10:37:05;;;;;;;4.07;0.90;;;25.90;1.00;;;;;;5131964;27;20491;-57
2022/05/12 10:39:46;;;;;;;0.80;0.60;;;26.30;1.00;;;;;;5133637;27;20532;-49
2022/05/12 10:42:40;;;;;;;1.13;0.70;;;25.90;1.00;;;;;;5134555;27;20516;-50
2022/05/12 10:45:20;;;;;;;1.10;0.60;;;25.20;1.00;;;;;;5123597;27;20662;-50
2022/05/12 10:48:13;;;;;;;1.70;0.70;;;25.00;1.00;;;;;;5122805;27;20455;-52
2022/05/12 10:50:48;;;;;;;1.23;0.80;;;25.20;1.00;;;;;;5111017;27;21046;-54
2022/05/12 10:53:32;;;;;;;1.23;0.57;;;25.70;1.00;;;;;;5120278;27;21011;-54
2022/05/12 10:56:10;;;;;;;0.87;0.70;;;26.20;1.00;;;;;;5121067;27;20572;-55
2022/05/12 10:58:46;;;;;;;0.90;0.70;;;26.60;1.00;;;;;;5126350;27;20514;-55
2022/05/12 11:01:19;;;;;;;1.17;0.60;;;26.30;1.00;;;;;;5130849;27;20484;-56
2022/05/12 11:03:53;;;;;;;0.90;0.70;;;26.40;1.00;;;;;;5121597;27;20836;-55
2022/05/12 11:06:24;;;;;;;0.73;0.60;;;26.30;1.00;;;;;;5127745;27;20448;-55
2022/05/12 11:08:55;;;;;;;1.10;0.80;;;26.40;1.00;;;;;;5119878;27;20525;-56
2022/05/12 11:11:26;;;;;;;0.80;0.60;;;26.40;1.00;;;;;;5124812;27;20448;-53
2022/05/12 11:13:59;;;;;;;4.40;0.70;;;26.20;1.00;;;;;;5127310;27;20554;-54
2022/05/12 11:16:30;;;;;;;1.20;0.70;;;26.60;1.00;;;;;;5128756;27;20484;-53
2022/05/12 11:19:06;;;;;;;1.20;0.70;;;27.10;1.00;;;;;;5118397;27;20496;-56
2022/05/12 11:21:39;;;;;;;0.80;0.60;;;27.10;1.00;;;;;;5115846;28;20467;-53
2022/05/12 11:24:13;;;;;;;2.70;0.70;;;27.70;1.00;;;;;;5116681;28;20982;-52
2022/05/12 11:26:53;;;;;;;17.93;15.60;;;27.50;1.00;;;;;;5121160;28;20576;-52
2022/05/12 11:29:44;;;;;;;1.10;0.80;;;27.80;1.00;;;;;;5119720;28;20439;-54
2022/05/12 11:32:27;;;;;;;0.87;0.70;;;27.50;1.00;;;;;;5121967;28;21064;-52
2022/05/12 11:35:01;;;;;;;1.57;0.90;;;27.10;1.00;;;;;;5123556;28;20486;-52
2022/05/12 11:37:35;;;;;;;2.07;0.90;;;27.30;1.00;;;;;;5120380;28;20479;-52
2022/05/12 11:40:06;;;;;;;0.90;0.60;;;27.60;1.00;;;;;;5130345;28;21154;-50
2022/05/12 11:45:38;;;;;;;1.10;0.80;;;27.10;1.00;;;;;;5066866;28;20473;-53
2022/05/12 11:48:25;;;;;;;1.00;0.90;;;27.00;1.00;;;;;;5112185;28;20479;-55
2022/05/12 11:51:20;;;;;;;1.20;0.77;;;27.00;1.00;;;;;;5125105;28;20533;-53
2022/05/12 11:53:56;;;;;;;0.97;0.73;;;27.50;1.00;;;;;;5120465;28;20456;-52
2022/05/12 11:56:49;;;;;;;2.03;0.80;;;27.70;1.00;;;;;;5111830;28;20562;-52
2022/05/12 11:59:20;;;;;;;1.43;0.63;;;28.30;1.00;;;;;;5110729;28;20509;-57
2022/05/12 12:01:55;;;;;;;2.70;0.80;;;27.90;1.00;;;;;;5125512;28;20534;-56
2022/05/12 12:04:46;;;;;;;1.07;0.77;;;28.00;1.00;;;;;;5131751;28;20518;-56
2022/05/12 12:07:56;;;;;;;0.93;0.80;;;28.00;1.00;;;;;;5117643;28;20461;-55
2022/05/12 12:10:32;;;;;;;1.23;1.10;;;28.10;1.00;;;;;;5110844;28;20465;-55
2022/05/12 12:13:04;;;;;;;6.03;5.60;;;28.40;1.00;;;;;;5113046;28;20460;-56
2022/05/12 12:16:04;;;;;;;1.83;0.80;;;28.20;1.00;;;;;;5119040;28;20568;-56
2022/05/12 12:22:04;;;;;;;2.80;1.70;;;27.60;1.00;;;;;;5119665;27;20569;-55
2022/05/12 12:24:51;;;;;;;17.97;16.17;;;27.40;1.00;;;;;;5114664;28;20459;-53
2022/05/12 12:27:35;;;;;;;1.20;0.90;;;27.30;1.00;;;;;;5128962;27;20871;-54
2022/05/12 12:30:23;;;;;;;0.90;0.80;;;27.60;1.00;;;;;;5129134;27;20846;-57
2022/05/12 12:33:20;;;;;;;0.93;0.60;;;28.40;1.00;;;;;;5108542;28;20433;-55
2022/05/12 12:36:08;;;;;;;1.40;0.80;;;28.40;1.00;;;;;;5117924;28;20554;-57
2022/05/12 12:39:11;;;;;;;1.00;0.70;;;28.10;1.00;;;;;;5129916;27;20496;-57
2022/05/12 12:41:44;;;;;;;1.50;0.90;;;27.40;1.00;;;;;;5130216;27;20534;-55
2022/05/12 12:44:23;;;;;;;0.87;0.70;;;27.00;1.00;;;;;;5129535;27;21108;-57
2022/05/12 12:47:14;;;;;;;1.57;1.20;;;27.60;1.00;;;;;;5111342;27;20539;-55
2022/05/12 12:49:51;;;;;;;0.80;0.70;;;27.90;1.00;;;;;;5126255;28;20505;-55
2022/05/12 12:52:19;;;;;;;4.40;0.80;;;28.00;1.00;;;;;;5131354;27;20500;-55
2022/05/12 12:57:48;;;;;;;2.30;0.70;;;27.40;1.00;;;;;;5129669;28;20466;-56
2022/05/12 13:00:24;;;;;;;1.57;0.70;;;26.70;1.00;;;;;;5129836;27;20475;-55
2022/05/12 13:03:00;;;;;;;1.33;0.80;;;27.00;1.00;;;;;;5114917;27;21098;-56
2022/05/12 13:05:28;;;;;;;1.10;0.70;;;27.10;1.00;;;;;;5108117;28;20448;-57
2022/05/12 13:07:57;;;;;;;0.90;0.70;;;26.90;1.00;;;;;;5122025;28;20554;-55
2022/05/12 13:10:25;;;;;;;1.00;0.80;;;26.70;1.00;;;;;;5125106;27;20495;-55
2022/05/12 13:13:01;;;;;;;1.30;0.73;;;26.40;1.00;;;;;;5129404;27;20472;-56
2022/05/12 13:15:30;;;;;;;1.00;0.70;;;26.20;1.00;;;;;;5128221;27;20451;-56
2022/05/12 13:18:00;;;;;;;1.00;0.60;;;26.30;1.00;;;;;;5128152;27;20447;-51
2022/05/12 13:20:32;;;;;;;1.93;0.70;;;26.60;1.00;;;;;;5124342;27;20590;-53
2022/05/12 13:23:05;;;;;;;1.43;0.60;;;26.80;1.00;;;;;;5129204;27;20466;-55
2022/05/12 13:25:35;;;;;;;3.17;0.70;;;26.50;1.00;;;;;;5127875;27;20458;-55
2022/05/12 13:28:06;;;;;;;1.37;0.70;;;26.10;1.00;;;;;;5118166;28;20850;-54
2022/05/12 13:30:38;;;;;;;1.10;0.70;;;26.00;1.00;;;;;;5129192;27;20851;-54
2022/05/12 13:33:09;;;;;;;1.00;0.80;;;26.00;1.00;;;;;;5112953;28;20444;-52
2022/05/12 13:35:37;;;;;;;0.90;0.70;;;25.80;1.00;;;;;;5112294;28;20468;-51
2022/05/12 13:38:07;;;;;;;1.10;0.80;;;25.60;1.00;;;;;;5112252;28;20551;-51
2022/05/12 13:40:50;;;;;;;3.27;0.73;;;25.70;1.00;;;;;;5100961;28;20486;-51
2022/05/12 13:43:27;;;;;;;0.90;0.70;;;25.70;1.00;;;;;;5114938;28;20543;-49
2022/05/12 13:46:21;;;;;;;0.77;0.60;;;26.00;1.00;;;;;;5109933;28;20461;-54